createdAt,value
2022-12-15T00:02:13.687Z,96272.81
2022-12-15T00:04:59.147Z,96276.63
2022-12-15T00:07:44.188Z,96259.66
2022-12-15T00:10:30.128Z,96264.47
2022-12-15T00:13:15.512Z,96249.53
2022-12-15T00:16:00.602Z,96257.53
2022-12-15T00:18:46.367Z,96248.50
2022-12-15T00:21:31.511Z,96243.53
2022-12-15T00:24:16.707Z,96251.50
2022-12-15T00:27:01.822Z,96247.53
2022-12-15T00:29:46.904Z,96236.69
2022-12-15T00:32:32.413Z,96244.13
2022-12-15T00:35:17.744Z,96259.91
2022-12-15T00:38:02.820Z,96251.00
2022-12-15T00:40:29.662Z,96264.31
2022-12-15T00:42:56.454Z,96263.78
2022-12-15T00:45:43.070Z,96274.66
2022-12-15T00:48:09.867Z,96303.81
2022-12-15T00:50:54.947Z,96305.19
2022-12-15T00:53:41.500Z,96319.72
2022-12-15T00:56:29.108Z,96311.69
2022-12-15T00:59:14.382Z,96320.50
2022-12-15T01:02:00.150Z,96337.44
2022-12-15T01:04:46.563Z,96358.31
2022-12-15T01:07:31.796Z,96370.50
2022-12-15T01:10:17.504Z,96367.97
2022-12-15T01:13:02.667Z,96373.19
2022-12-15T01:15:47.894Z,96378.94
2022-12-15T01:18:33.139Z,96389.38
2022-12-15T01:21:01.296Z,96399.50
2022-12-15T01:23:28.503Z,96411.09
2022-12-15T01:25:56.256Z,96426.47
2022-12-15T01:28:23.751Z,96435.44
2022-12-15T01:30:50.651Z,96427.13
2022-12-15T01:33:18.306Z,96402.53
2022-12-15T01:35:45.440Z,96390.22
2022-12-15T01:38:12.271Z,96383.69
2022-12-15T01:40:50.495Z,96370.34
2022-12-15T01:43:18.737Z,96375.31
2022-12-15T01:46:02.217Z,96363.38
2022-12-15T01:48:29.017Z,96353.31
2022-12-15T01:51:01.609Z,96343.84
2022-12-15T01:53:32.490Z,96331.56
2022-12-15T01:56:00.080Z,96312.56
2022-12-15T01:58:27.190Z,96289.63
2022-12-15T02:00:54.224Z,96289.25
2022-12-15T02:03:21.139Z,96274.25
2022-12-15T02:05:48.556Z,96273.44
2022-12-15T02:08:15.355Z,96256.88
2022-12-15T02:10:50.805Z,96241.03
2022-12-15T02:13:44.987Z,96231.94
2022-12-15T02:16:11.853Z,96214.31
2022-12-15T02:18:47.873Z,96210.78
2022-12-15T02:21:18.744Z,96199.91
2022-12-15T02:23:51.689Z,96219.06
2022-12-15T02:26:25.690Z,96198.25
2022-12-15T02:29:02.118Z,96178.88
2022-12-15T02:31:51.180Z,96161.09
2022-12-15T02:34:23.687Z,96162.22
2022-12-15T02:36:55.192Z,96179.22
2022-12-15T02:39:23.555Z,96169.75
2022-12-15T02:41:53.131Z,96160.50
2022-12-15T02:44:23.207Z,96171.84
2022-12-15T02:47:10.193Z,96178.69
2022-12-15T02:49:36.966Z,96173.75
2022-12-15T02:52:26.908Z,96176.97
2022-12-15T02:55:13.370Z,96181.75
2022-12-15T02:57:44.811Z,96184.28
2022-12-15T03:00:12.814Z,96201.75
2022-12-15T03:02:41.694Z,96217.06
2022-12-15T03:05:09.216Z,96222.75
2022-12-15T03:07:35.964Z,96225.25
2022-12-15T03:10:03.866Z,96242.13
2022-12-15T03:12:30.934Z,96236.25
2022-12-15T03:14:58.562Z,96249.56
2022-12-15T03:17:25.423Z,96248.59
2022-12-15T03:19:52.327Z,96261.63
2022-12-15T03:22:19.320Z,96267.03
2022-12-15T03:24:46.138Z,96277.44
2022-12-15T03:27:13.091Z,96289.03
2022-12-15T03:29:40.104Z,96295.63
2022-12-15T03:32:07.250Z,96286.06
2022-12-15T03:34:34.199Z,96289.00
2022-12-15T03:37:01.486Z,96291.69
2022-12-15T03:39:28.336Z,96289.91
2022-12-15T03:41:55.216Z,96301.38
2022-12-15T03:44:22.615Z,96297.19
2022-12-15T03:46:49.482Z,96299.56
2022-12-15T03:49:16.431Z,96318.34
2022-12-15T03:51:43.247Z,96322.97
2022-12-15T03:54:10.057Z,96319.41
2022-12-15T03:56:37.181Z,96331.19
2022-12-15T03:59:04.083Z,96334.94
2022-12-15T04:01:32.285Z,96335.53
2022-12-15T04:04:01.225Z,96350.09
2022-12-15T04:06:28.971Z,96357.06
2022-12-15T04:08:55.853Z,96370.88
2022-12-15T04:11:22.869Z,96357.59
2022-12-15T04:13:50.217Z,96367.31
2022-12-15T04:16:20.159Z,96373.16
2022-12-15T04:19:07.839Z,96391.47
2022-12-15T04:21:34.794Z,96393.03
2022-12-15T04:24:20.155Z,96397.41
2022-12-15T04:27:05.573Z,96378.38
2022-12-15T04:29:50.649Z,96416.41
2022-12-15T04:32:35.751Z,96421.22
2022-12-15T04:35:20.763Z,96409.53
2022-12-15T04:38:06.032Z,96439.94
2022-12-15T04:40:51.687Z,96444.72
2022-12-15T04:43:37.133Z,96450.81
2022-12-15T04:46:22.167Z,96470.69
2022-12-15T04:49:07.753Z,96491.22
2022-12-15T04:51:53.738Z,96500.78
2022-12-15T04:54:38.719Z,96486.88
2022-12-15T04:57:23.883Z,96479.25
2022-12-15T05:00:09.092Z,96493.28
2022-12-15T05:02:54.399Z,96506.66
2022-12-15T05:05:39.355Z,96523.00
2022-12-15T05:08:24.481Z,96527.34
2022-12-15T05:11:09.754Z,96540.22
2022-12-15T05:13:54.786Z,96545.63
2022-12-15T05:16:40.561Z,96547.31
2022-12-15T05:19:25.743Z,96532.78
2022-12-15T05:22:11.020Z,96531.13
2022-12-15T05:24:56.374Z,96549.31
2022-12-15T05:27:41.751Z,96552.63
2022-12-15T05:30:29.684Z,96560.53
2022-12-15T05:32:56.448Z,96571.97
2022-12-15T05:35:23.410Z,96583.91
2022-12-15T05:37:50.182Z,96602.28
2022-12-15T05:40:17.068Z,96604.69
2022-12-15T05:42:43.853Z,96603.88
2022-12-15T05:45:17.021Z,96603.22
2022-12-15T05:47:43.899Z,96611.13
2022-12-15T05:50:10.685Z,96611.22
2022-12-15T05:52:37.653Z,96617.16
2022-12-15T05:55:04.556Z,96633.06
2022-12-15T05:57:31.440Z,96629.41
2022-12-15T05:59:58.385Z,96623.06
2022-12-15T06:02:25.226Z,96623.69
2022-12-15T06:04:52.100Z,96631.28
2022-12-15T06:07:19.490Z,96645.00
2022-12-15T06:09:46.544Z,96636.25
2022-12-15T06:12:13.334Z,96651.66
2022-12-15T06:14:40.099Z,96662.03
2022-12-15T06:17:07.080Z,96684.88
2022-12-15T06:19:33.861Z,96676.25
2022-12-15T06:22:00.759Z,96683.53
2022-12-15T06:24:27.676Z,96681.69
2022-12-15T06:26:54.519Z,96681.56
2022-12-15T06:29:21.581Z,96690.50
2022-12-15T06:31:48.510Z,96702.13
2022-12-15T06:34:16.124Z,96698.69
2022-12-15T06:36:43.021Z,96708.78
2022-12-15T06:39:11.958Z,96720.03
2022-12-15T06:41:39.375Z,96721.69
2022-12-15T06:44:06.116Z,96721.34
2022-12-15T06:46:35.182Z,96732.50
2022-12-15T06:49:02.172Z,96721.25
2022-12-15T06:51:29.300Z,96729.47
2022-12-15T06:53:56.661Z,96728.94
2022-12-15T06:56:30.702Z,96727.28
2022-12-15T06:59:00.001Z,96728.75
2022-12-15T07:01:26.927Z,96728.34
2022-12-15T07:03:54.605Z,96725.72
2022-12-15T07:06:21.818Z,96727.81
2022-12-15T07:08:52.496Z,96738.94
2022-12-15T07:11:21.189Z,96740.19
2022-12-15T07:13:54.652Z,96735.81
2022-12-15T07:16:22.587Z,96731.25
2022-12-15T07:18:49.882Z,96731.78
2022-12-15T07:21:17.021Z,96735.28
2022-12-15T07:23:54.827Z,96733.31
2022-12-15T07:26:23.856Z,96731.22
2022-12-15T07:28:50.861Z,96734.34
2022-12-15T07:31:18.284Z,96742.22
2022-12-15T07:33:45.138Z,96749.09
2022-12-15T07:36:12.161Z,96751.47
2022-12-15T07:38:39.042Z,96755.31
2022-12-15T07:41:07.089Z,96753.31
2022-12-15T07:43:34.416Z,96756.31
2022-12-15T07:46:02.188Z,96753.41
2022-12-15T07:48:29.492Z,96751.47
2022-12-15T07:51:05.192Z,96739.47
2022-12-15T07:53:35.583Z,96746.75
2022-12-15T07:56:08.626Z,96748.25
2022-12-15T07:58:36.749Z,96756.97
2022-12-15T08:01:05.245Z,96762.78
2022-12-15T08:03:32.691Z,96771.78
2022-12-15T08:06:04.337Z,96772.69
2022-12-15T08:08:31.726Z,96778.63
2022-12-15T08:10:59.012Z,96789.66
2022-12-15T08:14:00.700Z,96789.47
2022-12-15T08:16:13.373Z,96794.22
2022-12-15T08:18:40.183Z,96793.41
2022-12-15T08:21:08.468Z,96795.56
2022-12-15T08:23:35.559Z,96784.66
2022-12-15T08:26:06.106Z,96797.94
2022-12-15T08:28:33.463Z,96806.34
2022-12-15T08:31:04.236Z,96807.34
2022-12-15T08:33:31.318Z,96806.59
2022-12-15T08:36:03.337Z,96799.97
2022-12-15T08:38:30.797Z,96794.44
2022-12-15T08:40:57.559Z,96797.16
2022-12-15T08:43:24.759Z,96790.41
2022-12-15T08:45:51.626Z,96794.81
2022-12-15T08:48:18.379Z,96789.94
2022-12-15T08:50:45.963Z,96798.84
2022-12-15T08:56:07.358Z,96791.72
2022-12-15T08:58:34.539Z,96788.41
2022-12-15T09:01:02.344Z,96786.72
2022-12-15T09:03:29.877Z,96792.44
2022-12-15T09:05:57.879Z,96770.13
2022-12-15T09:08:24.728Z,96776.53
2022-12-15T09:10:52.455Z,96768.09
2022-12-15T09:13:19.587Z,96770.34
2022-12-15T09:16:08.989Z,96769.28
2022-12-15T09:18:34.147Z,96777.31
2022-12-15T09:21:05.034Z,96774.63
2022-12-15T09:23:32.521Z,96785.06
2022-12-15T09:26:02.687Z,96783.31
2022-12-15T09:28:29.607Z,96786.72
2022-12-15T09:31:07.020Z,96783.88
2022-12-15T09:33:34.307Z,96777.66
2022-12-15T09:36:01.801Z,96783.47
2022-12-15T09:38:28.680Z,96786.53
2022-12-15T09:40:55.564Z,96782.16
2022-12-15T09:43:46.045Z,96782.84
2022-12-15T09:46:23.453Z,96775.94
2022-12-15T09:48:51.563Z,96779.69
2022-12-15T09:51:18.798Z,96781.56
2022-12-15T09:53:55.494Z,96779.41
2022-12-15T09:56:26.458Z,96776.31
2022-12-15T09:59:18.124Z,96775.00
2022-12-15T10:02:07.992Z,96773.16
2022-12-15T10:04:43.692Z,96774.25
2022-12-15T10:07:15.308Z,96784.63
2022-12-15T10:09:42.071Z,96773.84
2022-12-15T10:12:14.684Z,96766.88
2022-12-15T10:15:01.304Z,96766.47
2022-12-15T10:17:36.503Z,96780.66
2022-12-15T10:20:13.855Z,96779.88
2022-12-15T10:22:40.747Z,96785.19
2022-12-15T10:25:33.851Z,96785.19
2022-12-15T10:28:09.785Z,96783.34
2022-12-15T10:30:44.095Z,96779.19
2022-12-15T10:33:17.425Z,96770.97
2022-12-15T10:35:44.455Z,96760.22
2022-12-15T10:38:34.585Z,96772.38
2022-12-15T10:41:22.021Z,96771.84
2022-12-15T10:43:52.328Z,96763.91
2022-12-15T10:46:20.719Z,96773.59
2022-12-15T10:48:50.686Z,96777.19
2022-12-15T10:51:22.440Z,96775.50
2022-12-15T10:53:54.027Z,96761.56
2022-12-15T10:56:23.004Z,96767.50
2022-12-15T10:58:53.807Z,96773.84
2022-12-15T11:01:24.442Z,96769.28
2022-12-15T11:03:53.128Z,96769.28
2022-12-15T11:06:21.955Z,96770.00
2022-12-15T11:08:50.232Z,96778.81
2022-12-15T11:11:50.583Z,96774.25
2022-12-15T11:14:27.563Z,96761.69
2022-12-15T11:16:56.021Z,96768.91
2022-12-15T11:19:28.692Z,96771.91
2022-12-15T11:22:00.138Z,96765.84
2022-12-15T11:24:35.469Z,96772.88
2022-12-15T11:27:10.232Z,96769.16
2022-12-15T11:29:50.221Z,96765.28
2022-12-15T11:32:19.866Z,96778.28
2022-12-15T11:34:47.562Z,96774.13
2022-12-15T11:37:24.397Z,96779.09
2022-12-15T11:40:09.638Z,96776.88
2022-12-15T11:42:55.121Z,96778.66
2022-12-15T11:45:45.382Z,96775.19
2022-12-15T11:48:14.269Z,96791.50
2022-12-15T11:51:02.950Z,96794.53
2022-12-15T11:53:49.431Z,96785.97
2022-12-15T11:56:28.420Z,96786.63
2022-12-15T11:59:14.281Z,96787.88
2022-12-15T12:01:55.407Z,96788.44
2022-12-15T12:04:37.694Z,96785.22
2022-12-15T12:07:23.498Z,96785.66
2022-12-15T12:10:16.698Z,96784.81
2022-12-15T12:12:47.618Z,96787.59
2022-12-15T12:15:30.311Z,96793.53
2022-12-15T12:18:23.324Z,96798.91
2022-12-15T12:20:53.296Z,96788.09
2022-12-15T12:23:27.854Z,96788.66
2022-12-15T12:26:03.827Z,96784.09
2022-12-15T12:28:42.897Z,96780.75
2022-12-15T12:31:19.509Z,96777.84
2022-12-15T12:33:49.250Z,96784.47
2022-12-15T12:36:16.905Z,96790.78
2022-12-15T12:38:50.562Z,96785.53
2022-12-15T12:41:39.764Z,96797.69
2022-12-15T12:44:15.885Z,96793.81
2022-12-15T12:46:49.136Z,96795.16
2022-12-15T12:49:22.795Z,96799.06
2022-12-15T12:51:54.058Z,96807.88
2022-12-15T12:54:34.047Z,96807.34
2022-12-15T12:57:01.276Z,96810.66
2022-12-15T12:59:28.010Z,96803.47
2022-12-15T13:01:55.705Z,96812.91
2022-12-15T13:04:28.465Z,96816.53
2022-12-15T13:06:55.265Z,96823.22
2022-12-15T13:09:23.753Z,96833.91
2022-12-15T13:11:53.616Z,96839.28
2022-12-15T13:14:46.770Z,96847.03
2022-12-15T13:17:29.554Z,96860.31
2022-12-15T13:19:59.436Z,96868.06
2022-12-15T13:22:31.791Z,96855.91
2022-12-15T13:24:58.850Z,96867.78
2022-12-15T13:27:34.758Z,96868.31
2022-12-15T13:30:02.811Z,96873.84
2022-12-15T13:32:33.036Z,96877.47
2022-12-15T13:35:20.114Z,96878.25
2022-12-15T13:37:49.108Z,96885.81
2022-12-15T13:40:34.758Z,96886.06
2022-12-15T13:43:04.864Z,96888.78
2022-12-15T13:45:33.528Z,96896.97
2022-12-15T13:48:01.161Z,96896.81
2022-12-15T13:50:39.541Z,96889.47
2022-12-15T13:53:19.460Z,96899.38
2022-12-15T13:55:59.769Z,96898.06
2022-12-15T13:58:28.077Z,96887.41
2022-12-15T14:00:55.657Z,96897.28
2022-12-15T14:03:22.653Z,96903.25
2022-12-15T14:05:51.228Z,96904.47
2022-12-15T14:08:18.905Z,96893.09
2022-12-15T14:10:50.896Z,96898.13
2022-12-15T14:13:22.771Z,96912.41
2022-12-15T14:15:53.513Z,96912.81
2022-12-15T14:18:24.890Z,96913.97
2022-12-15T14:20:51.755Z,96912.72
2022-12-15T14:23:19.661Z,96914.41
2022-12-15T14:25:56.265Z,96922.72
2022-12-15T14:28:27.131Z,96925.94
2022-12-15T14:30:54.228Z,96917.78
2022-12-15T14:33:25.183Z,96918.50
2022-12-15T14:35:56.525Z,96926.13
2022-12-15T14:38:23.318Z,96933.75
2022-12-15T14:40:52.281Z,96935.16
2022-12-15T14:43:24.136Z,96939.31
2022-12-15T14:45:54.513Z,96938.47
2022-12-15T14:48:42.814Z,96942.06
2022-12-15T14:51:11.320Z,96939.19
2022-12-15T14:53:40.063Z,96946.75
2022-12-15T14:56:15.848Z,96947.31
2022-12-15T14:58:42.809Z,96946.13
2022-12-15T15:01:22.513Z,96944.69
2022-12-15T15:03:56.752Z,96934.47
2022-12-15T15:06:28.942Z,96949.03
2022-12-15T15:08:55.788Z,96942.00
2022-12-15T15:11:29.946Z,96949.66
2022-12-15T15:13:59.240Z,96958.78
2022-12-15T15:16:26.347Z,96961.72
2022-12-15T15:18:54.858Z,96955.53
2022-12-15T15:21:23.822Z,96963.06
2022-12-15T15:24:23.082Z,96956.41
2022-12-15T15:26:49.993Z,96962.06
2022-12-15T15:29:35.083Z,96954.56
2022-12-15T15:32:06.192Z,96969.94
2022-12-15T15:34:32.958Z,96961.91
2022-12-15T15:37:01.751Z,96967.69
2022-12-15T15:39:28.571Z,96966.56
2022-12-15T15:41:55.528Z,96968.66
2022-12-15T15:44:22.398Z,96969.09
2022-12-15T15:46:50.865Z,96978.78
2022-12-15T15:49:19.632Z,96978.78
2022-12-15T15:51:46.785Z,96984.94
2022-12-15T15:54:16.825Z,96978.38
2022-12-15T15:56:44.184Z,96988.28
2022-12-15T15:59:15.338Z,96995.75
2022-12-15T16:01:42.946Z,96996.09
2022-12-15T16:04:10.063Z,97003.28
2022-12-15T16:06:39.681Z,97008.91
2022-12-15T16:09:13.014Z,97005.38
2022-12-15T16:11:39.768Z,96997.97
2022-12-15T16:14:11.308Z,97000.97
2022-12-15T16:16:38.419Z,96999.53
2022-12-15T16:19:05.209Z,96997.34
2022-12-15T16:21:32.389Z,96999.97
2022-12-15T16:23:59.417Z,96993.06
2022-12-15T16:26:28.239Z,96991.59
2022-12-15T16:28:55.406Z,96993.69
2022-12-15T16:31:41.971Z,96993.91
2022-12-15T16:34:10.663Z,96994.72
2022-12-15T16:36:41.069Z,96993.91
2022-12-15T16:39:22.036Z,97006.16
2022-12-15T16:41:48.888Z,97007.31
2022-12-15T16:44:15.719Z,97015.94
2022-12-15T16:46:45.320Z,97018.66
2022-12-15T16:49:12.477Z,97029.19
2022-12-15T16:51:40.420Z,97031.88
2022-12-15T16:54:07.619Z,97028.22
2022-12-15T16:56:34.394Z,97039.25
2022-12-15T16:59:32.659Z,97034.69
2022-12-15T17:01:48.574Z,97033.84
2022-12-15T17:04:16.819Z,97037.78
2022-12-15T17:06:43.810Z,97039.75
2022-12-15T17:09:16.433Z,97040.47
2022-12-15T17:11:43.377Z,97036.72
2022-12-15T17:14:10.635Z,97048.38
2022-12-15T17:16:37.403Z,97053.06
2022-12-15T17:19:04.461Z,97052.81
2022-12-15T17:21:35.775Z,97065.41
2022-12-15T17:24:06.820Z,97064.97
2022-12-15T17:26:35.877Z,97070.25
2022-12-15T17:29:08.136Z,97074.31
2022-12-15T17:31:36.139Z,97072.78
2022-12-15T17:34:22.112Z,97067.00
2022-12-15T17:36:48.903Z,97070.56
2022-12-15T17:39:15.933Z,97074.94
2022-12-15T17:41:59.196Z,97075.38
2022-12-15T17:44:33.460Z,97067.66
2022-12-15T17:47:01.172Z,97068.13
2022-12-15T17:49:34.703Z,97067.59
2022-12-15T17:52:03.500Z,97074.47
2022-12-15T17:54:30.610Z,97069.28
2022-12-15T17:56:57.340Z,97069.28
2022-12-15T17:59:24.146Z,97063.34
2022-12-15T18:01:52.372Z,97073.81
2022-12-15T18:04:19.351Z,97071.34
2022-12-15T18:06:46.133Z,97069.28
2022-12-15T18:09:17.709Z,97079.41
2022-12-15T18:11:47.024Z,97074.31
2022-12-15T18:14:15.289Z,97072.09
2022-12-15T18:16:42.564Z,97084.19
2022-12-15T18:19:09.630Z,97079.34
2022-12-15T18:21:36.867Z,97072.31
2022-12-15T18:24:03.987Z,97067.75
2022-12-15T18:26:38.171Z,97077.09
2022-12-15T18:29:15.103Z,97069.72
2022-12-15T18:31:42.339Z,97076.00
2022-12-15T18:34:19.377Z,97078.59
2022-12-15T18:36:46.332Z,97072.69
2022-12-15T18:39:16.393Z,97081.19
2022-12-15T18:41:43.171Z,97083.16
2022-12-15T18:44:23.274Z,97090.53
2022-12-15T18:46:50.064Z,97086.16
2022-12-15T18:49:18.007Z,97091.34
2022-12-15T18:51:46.684Z,97092.19
2022-12-15T18:54:16.280Z,97090.31
2022-12-15T18:56:43.042Z,97097.00
2022-12-15T18:59:16.042Z,97098.94
2022-12-15T19:01:43.900Z,97105.34
2022-12-15T19:04:10.915Z,97095.13
2022-12-15T19:06:38.543Z,97091.41
2022-12-15T19:09:12.190Z,97091.63
2022-12-15T19:11:39.053Z,97095.78
2022-12-15T19:14:27.577Z,97092.25
2022-12-15T19:17:13.026Z,97086.78
2022-12-15T19:19:58.314Z,97085.84
2022-12-15T19:22:28.262Z,97098.84
2022-12-15T19:24:55.094Z,97087.03
2022-12-15T19:27:26.467Z,97076.22
2022-12-15T19:29:54.629Z,97095.72
2022-12-15T19:32:21.938Z,97089.41
2022-12-15T19:34:48.997Z,97084.28
2022-12-15T19:37:24.367Z,97079.25
2022-12-15T19:39:51.874Z,97084.19
2022-12-15T19:42:21.440Z,97078.06
2022-12-15T19:44:48.872Z,97084.91
2022-12-15T19:47:15.747Z,97086.41
2022-12-15T19:49:43.254Z,97086.41
2022-12-15T19:52:17.404Z,97084.72
2022-12-15T19:54:44.883Z,97083.06
2022-12-15T19:57:29.856Z,97081.66
2022-12-15T19:59:58.954Z,97079.25
2022-12-15T20:02:30.730Z,97079.34
2022-12-15T20:05:00.326Z,97073.56
2022-12-15T20:07:32.330Z,97080.00
2022-12-15T20:10:01.866Z,97072.31
2022-12-15T20:12:30.770Z,97072.00
2022-12-15T20:15:32.196Z,97068.78
2022-12-15T20:18:10.135Z,97072.66
2022-12-15T20:20:58.041Z,97070.44
2022-12-15T20:24:23.902Z,97057.09
2022-12-15T20:26:53.029Z,97071.03
2022-12-15T20:29:26.483Z,97077.22
2022-12-15T20:31:55.419Z,97079.06
2022-12-15T20:34:24.927Z,97084.28
2022-12-15T20:36:54.108Z,97069.50
2022-12-15T20:39:27.379Z,97076.22
2022-12-15T20:41:54.579Z,97071.84
2022-12-15T20:44:21.452Z,97066.72
2022-12-15T20:46:48.470Z,97082.88
2022-12-15T20:49:17.177Z,97081.00
2022-12-15T20:51:44.137Z,97076.09
2022-12-15T20:54:14.895Z,97082.13
2022-12-15T20:56:43.022Z,97081.19
2022-12-15T20:59:10.072Z,97084.00
2022-12-15T21:01:39.108Z,97087.16
2022-12-15T21:04:21.067Z,97094.84
2022-12-15T21:06:54.314Z,97106.28
2022-12-15T21:09:21.614Z,97103.69
2022-12-15T21:11:48.561Z,97098.22
2022-12-15T21:14:19.681Z,97082.63
2022-12-15T21:16:46.741Z,97081.13
2022-12-15T21:19:20.767Z,97076.13
2022-12-15T21:21:52.048Z,97082.16
2022-12-15T21:24:24.005Z,97083.09
2022-12-15T21:26:52.087Z,97080.50
2022-12-15T21:29:20.525Z,97068.63
2022-12-15T21:31:47.207Z,97077.34
2022-12-15T21:34:14.514Z,97074.94
2022-12-15T21:36:43.207Z,97080.84
2022-12-15T21:39:13.391Z,97085.31
2022-12-15T21:41:41.814Z,97091.81
2022-12-15T21:44:15.165Z,97087.94
2022-12-15T21:46:42.308Z,97075.31
2022-12-15T21:49:15.975Z,97080.84
2022-12-15T21:51:44.472Z,97081.06
2022-12-15T21:54:16.729Z,97087.34
2022-12-15T21:56:43.783Z,97094.13
2022-12-15T21:59:12.939Z,97090.41
2022-12-15T22:01:39.796Z,97091.63
2022-12-15T22:04:12.213Z,97092.19
2022-12-15T22:06:39.062Z,97090.34
2022-12-15T22:09:05.923Z,97088.66
2022-12-15T22:11:32.694Z,97089.88
2022-12-15T22:14:01.528Z,97088.38
2022-12-15T22:16:28.710Z,97079.00
2022-12-15T22:18:56.113Z,97089.69
2022-12-15T22:21:23.930Z,97072.06
2022-12-15T22:23:51.340Z,97071.75
2022-12-15T22:26:22.508Z,97067.63
2022-12-15T22:28:50.289Z,97069.38
2022-12-15T22:31:17.584Z,97071.69
2022-12-15T22:33:44.562Z,97061.59
2022-12-15T22:36:11.360Z,97065.56
2022-12-15T22:38:38.485Z,97055.09
2022-12-15T22:41:07.056Z,97047.31
2022-12-15T22:43:41.210Z,97049.91
2022-12-15T22:46:10.983Z,97042.19
2022-12-15T22:48:40.073Z,97036.91
2022-12-15T22:51:06.911Z,97034.84
2022-12-15T22:53:34.933Z,97032.44
2022-12-15T22:56:04.548Z,97032.16
2022-12-15T22:58:35.575Z,97035.69
2022-12-15T23:01:04.146Z,97035.69
2022-12-15T23:03:31.297Z,97036.31
2022-12-15T23:05:58.929Z,97031.50
2022-12-15T23:08:25.734Z,97025.94
2022-12-15T23:11:11.050Z,97020.28
2022-12-15T23:13:37.971Z,97010.06
2022-12-15T23:16:23.301Z,97019.63
2022-12-15T23:18:54.740Z,97015.03
2022-12-15T23:21:25.326Z,96999.81
2022-12-15T23:23:52.131Z,96993.88
2022-12-15T23:26:19.642Z,96988.47
2022-12-15T23:28:46.641Z,96989.59
2022-12-15T23:31:13.847Z,96975.13
2022-12-15T23:33:41.900Z,96963.97
2022-12-15T23:36:09.318Z,96967.16
2022-12-15T23:38:36.107Z,96966.03
2022-12-15T23:41:02.909Z,96973.44
2022-12-15T23:43:31.379Z,96973.56
2022-12-15T23:46:07.470Z,96970.38
2022-12-15T23:48:39.867Z,96973.13
2022-12-15T23:51:08.999Z,96979.19
2022-12-15T23:53:36.311Z,96976.44
2022-12-15T23:56:06.594Z,96976.47
2022-12-15T23:58:33.509Z,96963.06
